CCGS Henry Larsen — CGHL — position and weather

sailwx.info

Track history (hours):
 
Tides and Currents Weather Stations Pressure Air Temp Water Temp Dewpoint Dewpoint Depression Visibility Wind Speed Wind Dir Waves Ship Positions

CCGS Henry Larsen (Canada)

Medium Gulf/River Icebreaker

Last reported at 2019-Apr-19 09:00 UTC. Time now 2019-Apr-19 10:20 UTC.
Position N 47°36' W 052°42'.

Length 100.03 m; beam 19.82 m; draft 7.2 m.

Type: SAR. MMSI: 316013000.

Wind from 180 at 5 knots

Barometer 1027.0 mb
Air temperature -3.9 ° C
Dewpoint -6.2 ° C

Date/timePositionNaut miles runAvg speedWind from/ knotsBaromVisibWave heightAir tempDewpointWater temp
2019-Apr-19 09:00N 47°36' W 052°42'0 0.0 180 / 51027.0 -3.9-6.2
2019-Apr-19 08:00N 47°36' W 052°42'0 0.0 170 / 41026.5 -4.1-6.7
2019-Apr-19 07:00N 47°36' W 052°42'0 0.0 170 / 31026.4 -3.9-6.6
2019-Apr-19 06:00N 47°36' W 052°42'0 0.0 160 / 31026.7 -3.6-6.7
2019-Apr-19 05:00N 47°36' W 052°42'0 0.0 160 / 21026.8 -3.1-6.3
2019-Apr-19 04:00N 47°36' W 052°42'0 0.0 180 / 41027.2 -3.4-6.6
2019-Apr-19 03:00N 47°36' W 052°42'0 0.0 190 / 41027.4 -2.5-6.4
2019-Apr-19 02:00N 47°36' W 052°42'0 0.0 160 / 11027.0 -1.4-6.2
2019-Apr-19 01:00N 47°36' W 052°42'0 0.0 340 / 41026.4 -0.7-6.4
2019-Apr-19 00:00N 47°36' W 052°42'0 0.0 330 / 41026.0 -0.2-6.3
2019-Apr-18 22:00N 47°36' W 052°42'0 0.0 270 / 61024.7 0.2-7.4
2019-Apr-18 21:00N 47°36' W 052°42'0 0.0 290 / 61023.3 0.4-6.4
2019-Apr-18 20:00N 47°36' W 052°42'0 0.0 300 / 91022.4 0.5-5.8
2019-Apr-18 19:00N 47°36' W 052°42'0 0.0 290 / 51021.5 0.9-5.5
2019-Apr-18 18:00N 47°36' W 052°42'0 0.0 290 / 91020.7 0.6-5.5
2019-Apr-18 17:00N 47°36' W 052°42'0 0.0 290 / 91020.2 0.5-5.1
2019-Apr-18 16:00N 47°36' W 052°42'0 0.0 290 / 101019.3 0.4-5.1
2019-Apr-18 15:00N 47°36' W 052°42'0 0.0 300 / 81018.4 0.4-5.1
2019-Apr-18 14:00N 47°36' W 052°42'0 0.0 270 / 71017.8 0.2-4.8
2019-Apr-18 13:00N 47°36' W 052°42'0 0.0 300 / 81016.7 -0.0-4.4
2019-Apr-18 12:00N 47°36' W 052°42'0 0.0 310 / 81015.7 -0.3-4.3
2019-Apr-18 10:00N 47°36' W 052°42'0 0.0 260 / 71013.4 -0.5-4.4
2019-Apr-18 07:00N 47°36' W 052°42'0 0.0 270 / 61009.5 -0.5-4.4
2019-Apr-18 06:00N 47°36' W 052°42'0 0.0 310 / 81008.3 -0.3-4.4
2019-Apr-18 05:00N 47°36' W 052°42'0 0.0 300 / 111007.6 -0.2-4.3
2019-Apr-18 04:00N 47°36' W 052°42'0 0.0 300 / 111006.8 -0.1-4.1
2019-Apr-18 03:00N 47°36' W 052°42'0 0.0 310 / 111005.9 -0.2-3.6
2019-Apr-18 02:00N 47°36' W 052°42'0 0.0 310 / 101004.8 -0.1-3.4
2019-Apr-18 01:00N 47°36' W 052°42'0 0.0 310 / 111003.4 -0.0-3.5
2019-Apr-18 00:00N 47°36' W 052°42'0 0.0 310 / 131001.7 0.2-3.2
2019-Apr-17 23:00N 47°36' W 052°42'0 0.0 320 / 14999.5 0.2-2.8
2019-Apr-17 22:00N 47°36' W 052°42'0 0.0 330 / 17997.5 0.4-2.3
2019-Apr-17 21:00N 47°36' W 052°42'0 0.0 320 / 20995.2 0.7-2.0
2019-Apr-17 20:00N 47°36' W 052°42'0 0.0 330 / 21993.1 0.9-1.5
2019-Apr-17 19:00N 47°36' W 052°42'0 0.0 330 / 20991.0 1.4-1.3
2019-Apr-17 18:00N 47°36' W 052°42'0 0.0 330 / 20989.1 1.9-1.3
2019-Apr-17 17:00N 47°36' W 052°42'0 0.0 320 / 21987.4 1.9-1.2
2019-Apr-17 15:00N 47°36' W 052°42'0 0.0 320 / 17984.7 1.7-1.0
2019-Apr-17 14:00N 47°36' W 052°42'0 0.0 300 / 9983.3 1.5-0.8
2019-Apr-17 13:00N 47°36' W 052°42'0 0.0 300 / 5982.3 1.2-0.7
2019-Apr-17 10:00N 47°36' W 052°42'0 0.0 180 / 11979.6 0.6-1.3
2019-Apr-17 09:00N 47°36' W 052°42'0 0.0 190 / 11979.2 0.7-1.7
2019-Apr-17 08:00N 47°36' W 052°42'0 0.0 180 / 10978.8 0.6-1.4
2019-Apr-17 07:00N 47°36' W 052°42'0 0.0 180 / 10978.9 0.9-1.1
2019-Apr-17 06:00N 47°36' W 052°42'0 0.0 180 / 8978.9 1.0-0.7
2019-Apr-17 05:00N 47°36' W 052°42'0 0.0 170 / 6979.5 1.6-0.7
2019-Apr-17 03:00N 47°36' W 052°42'0 0.0 160 / 7980.3 2.1-0.2
2019-Apr-17 02:00N 47°36' W 052°42'0 0.0 180 / 10980.3 1.8-0.1
2019-Apr-17 01:00N 47°36' W 052°42'0 0.0 180 / 9981.4 2.1-0.1
2019-Apr-17 00:00N 47°36' W 052°42'0 0.0 170 / 9982.1 2.5 0.6
2019-Apr-16 23:00N 47°36' W 052°42'0 0.0 180 / 7982.8 2.8 1.1
2019-Apr-16 22:00N 47°36' W 052°42'0 0.0 180 / 9983.1 3.6 1.8
2019-Apr-16 21:00N 47°36' W 052°42'0 0.0 170 / 10983.5 5.5 3.0
2019-Apr-16 20:00N 47°36' W 052°42'0 0.0 180 / 10983.9 6.0 4.0
2019-Apr-16 19:00N 47°36' W 052°42'0 0.0 170 / 7984.7 7.3 5.2
2019-Apr-16 18:00N 47°36' W 052°42'0 0.0 180 / 9985.6 8.4 6.3
2019-Apr-16 17:00N 47°36' W 052°42'0 0.0 180 / 12986.2 9.4 7.4
2019-Apr-16 16:00N 47°36' W 052°42'0 0.0 360 / 3987.7 4.5 4.1
2019-Apr-16 15:00N 47°36' W 052°42'0 0.0 330 / 2989.0 2.9 2.6
2019-Apr-16 14:00N 47°36' W 052°42'0 0.0 340 / 2990.2 2.1 1.8
2019-Apr-16 13:00N 47°36' W 052°42'0 0.0 991.2 1.6 1.3
2019-Apr-16 12:00N 47°36' W 052°42'0 0.0 330 / 2992.3 1.1 0.7
2019-Apr-16 11:00N 47°36' W 052°42'0 0.0 992.9 0.8 0.4
2019-Apr-16 10:00N 47°36' W 052°42'0 0.0 310 / 2993.6 0.4-0.0
2019-Apr-16 08:00N 47°36' W 052°42'0 0.0 270 / 3997.3 -0.0-0.7
2019-Apr-16 07:00N 47°36' W 052°42'0 0.0 200 / 1999.6 0.2-0.7
2019-Apr-16 06:00N 47°36' W 052°42'0 0.0 050 / 41000.9 -0.1-0.9
2019-Apr-16 05:00N 47°36' W 052°42'0 0.0 030 / 41003.8 -0.4-1.2
2019-Apr-16 04:00N 47°36' W 052°42'0 0.0 080 / 11005.8 -0.4-1.3
2019-Apr-16 03:00N 47°36' W 052°42'0 0.0 020 / 11007.5 -0.4-1.4
2019-Apr-16 02:00N 47°36' W 052°42'0 0.0 040 / 31008.5 -0.3-1.4
2019-Apr-16 01:00N 47°36' W 052°42'0 0.0 190 / 11010.3 -0.2-1.8
2019-Apr-16 00:00N 47°36' W 052°42'0 0.0 130 / 11012.4 -0.0-2.2
2019-Apr-15 23:00N 47°36' W 052°42'0 0.0 180 / 21013.3 0.4-3.3
2019-Apr-15 22:00N 47°36' W 052°42'0 0.0 160 / 21013.7 0.6-3.5
2019-Apr-15 20:00N 47°36' W 052°42'0 0.0 190 / 21014.4 1.5-5.1
2019-Apr-15 19:00N 47°36' W 052°42'0 0.0 180 / 51015.0 2.5-6.5
2019-Apr-15 18:00N 47°36' W 052°42'0 0.0 180 / 51015.4 2.8-7.0
2019-Apr-15 17:00N 47°36' W 052°42'0 0.0 170 / 41015.4 4.5-8.1
2019-Apr-15 16:00N 47°36' W 052°42'0 0.0 150 / 31015.6 5.0-6.0
2019-Apr-15 15:00N 47°36' W 052°42'0 0.0 120 / 21015.2 5.4-5.1
2019-Apr-15 13:00N 47°36' W 052°42'0 0.0 350 / 31016.5 3.0-2.2
2019-Apr-15 10:00N 47°36' W 052°42'0 0.0 160 / 21015.0 0.9-2.4
2019-Apr-15 09:00N 47°36' W 052°42'0 0.0 170 / 21014.7 -0.6-3.3
2019-Apr-15 08:00N 47°36' W 052°42'0 0.0 1013.5 -0.1-2.9
2019-Apr-15 07:00N 47°36' W 052°42'0 0.0 340 / 11012.9 0.3-2.9
2019-Apr-15 06:00N 47°36' W 052°42'0 0.0 240 / 21012.2 0.7-2.6
2019-Apr-15 05:00N 47°36' W 052°42'0 0.0 340 / 41011.4 1.8-2.5
2019-Apr-15 04:00N 47°36' W 052°42'0 0.0 290 / 21011.1 2.2-2.7
2019-Apr-15 03:00N 47°36' W 052°42'0 0.0 210 / 11010.4 2.6-2.1
2019-Apr-15 01:00N 47°36' W 052°42'0 0.0 280 / 51008.7 2.9-2.3
2019-Apr-15 00:00N 47°36' W 052°42'0 0.0 310 / 41007.2 3.4-1.6
2019-Apr-14 23:00N 47°36' W 052°42'0 0.0 320 / 81005.5 3.5-0.8
2019-Apr-14 22:00N 47°36' W 052°42'0 0.0 340 / 71003.5 5.9 0.1
2019-Apr-14 21:00N 47°36' W 052°42'0 0.0 250 / 31002.1 8.5-1.0
2019-Apr-14 20:00N 47°36' W 052°42'0 0.0 220 / 51001.1 8.6-0.5
2019-Apr-14 19:00N 47°36' W 052°42'0 0.0 210 / 91000.0 9.4 0.2
2019-Apr-14 18:00N 47°36' W 052°42'0 0.0 210 / 9999.2 10.3 1.7
2019-Apr-14 17:00N 47°36' W 052°42'0 0.0 210 / 6999.7 10.0 3.3
2019-Apr-14 16:00N 47°36' W 052°42'0 0.0 220 / 7999.9 8.1 3.2
2019-Apr-14 15:00N 47°36' W 052°42'0 0.0 220 / 9999.4 7.1 3.1
2019-Apr-14 13:00N 47°36' W 052°42'0 0.0 210 / 71000.3 6.0 4.2
2019-Apr-14 12:00N 47°36' W 052°42'0 0.0 210 / 51000.4 7.0 4.6
2019-Apr-14 11:00N 47°36' W 052°42'0 0.0 200 / 61001.1 5.5 3.4
2019-Apr-14 10:00N 47°36' W 052°42'0 0.0 200 / 61002.4 4.2 2.8
2019-Apr-14 09:00N 47°36' W 052°42'0 0.0 190 / 31003.0 4.0 2.4
2019-Apr-14 08:00N 47°36' W 052°42'0 0.0 200 / 31003.0 3.6 1.3
2019-Apr-14 07:00N 47°36' W 052°42'0 0.0 240 / 11004.0 3.1 0.8
2019-Apr-14 06:00N 47°36' W 052°42'0 0.0 200 / 61005.4 2.6 0.6
2019-Apr-14 05:00N 47°36' W 052°42'0 0.0 200 / 51007.3 2.4-0.1
2019-Apr-14 04:00N 47°36' W 052°42'0 0.0 200 / 61008.6 2.3-0.6
2019-Apr-14 03:00N 47°36' W 052°42'0 0.0 200 / 71009.9 2.5-1.3
2019-Apr-14 02:00N 47°36' W 052°42'0 0.0 200 / 81011.3 2.7-3.4
2019-Apr-14 01:00N 47°36' W 052°42'0 0.0 200 / 51011.8 3.3-7.0
2019-Apr-14 00:00N 47°36' W 052°42'0 0.0 200 / 61013.0 4.1-6.9
2019-Apr-13 23:00N 47°36' W 052°42'0 0.0 210 / 91014.5 4.5-6.8
2019-Apr-13 22:00N 47°36' W 052°42'0 0.0 210 / 71014.3 5.2-4.9
2019-Apr-13 21:00N 47°36' W 052°42'0 0.0 210 / 81015.0 5.7-7.1
2019-Apr-13 20:00N 47°36' W 052°42'0 0.0 210 / 91015.3 6.8-11.4
2019-Apr-13 19:00N 47°36' W 052°42'0 0.0 210 / 61016.3 7.5-8.0
2019-Apr-13 18:00N 47°36' W 052°42'0 0.0 210 / 71016.9 7.6-8.5
2019-Apr-13 17:00N 47°36' W 052°42'0 0.0 210 / 51017.7 7.5-9.2
2019-Apr-13 16:00N 47°36' W 052°42'0 0.0 210 / 51018.1 6.8-9.4
2019-Apr-13 15:00N 47°36' W 052°42'0 0.0 220 / 51018.7 5.8-9.2
2019-Apr-13 14:00N 47°36' W 052°42'0 0.0 230 / 41019.3 5.2-8.2
2019-Apr-13 13:00N 47°36' W 052°42'0 0.0 200 / 91019.9 2.3-8.2
2019-Apr-13 12:00N 47°36' W 052°42'0 0.0 190 / 101020.1 0.8-7.3
2019-Apr-13 11:00N 47°36' W 052°42'0 0.0 190 / 81019.9 -0.0-6.5
2019-Apr-13 10:00N 47°36' W 052°42'0 0.0 170 / 51019.3 -0.6-6.1
2019-Apr-13 09:00N 47°36' W 052°42'0 0.0 180 / 41018.1 -2.0-6.9
2019-Apr-13 08:00N 47°36' W 052°42'0 0.0 170 / 51018.2 -1.6-6.7
2019-Apr-13 06:00N 47°36' W 052°42'0 0.0 160 / 41017.4 -0.9-6.3
2019-Apr-13 05:00N 47°36' W 052°42'0 0.0 180 / 51017.4 -1.2-7.2
2019-Apr-13 04:00N 47°36' W 052°42'0 0.0 170 / 41017.3 -1.6-6.1
2019-Apr-13 03:00N 47°36' W 052°42'0 0.0 170 / 31017.0 -1.6-5.3
2019-Apr-13 02:00N 47°36' W 052°42'0 0.0 170 / 41017.0 -1.2-5.5
2019-Apr-13 01:00N 47°36' W 052°42'0 0.0 170 / 21017.2 -0.9-5.1
2019-Apr-13 00:00N 47°36' W 052°42'0 0.0 010 / 31016.3 -1.3-5.0
2019-Apr-12 23:00N 47°36' W 052°42'0 0.0 360 / 51015.4 -0.9-4.6
2019-Apr-12 22:00N 47°36' W 052°42'0 0.0 010 / 61014.5 0.4-4.8
2019-Apr-12 21:00N 47°36' W 052°42'0 0.0 010 / 71013.9 2.2-5.0
2019-Apr-12 20:00N 47°36' W 052°42'0 0.0 360 / 91013.4 2.0-4.7
2019-Apr-12 19:00N 47°36' W 052°42'0 0.0 350 / 41012.6 2.4-3.5
2019-Apr-12 18:00N 47°36' W 052°42'0 0.0 210 / 91012.4 5.1-4.3
2019-Apr-12 17:00N 47°36' W 052°42'0 0.0 210 / 101012.5 4.8-3.9
2019-Apr-12 16:00N 47°36' W 052°42'0 0.0 210 / 81012.9 4.0-3.9
2019-Apr-12 15:00N 47°36' W 052°42'0 0.0 210 / 71013.3 3.6-3.7
2019-Apr-12 14:00N 47°36' W 052°42'0 0.0 220 / 71013.7 3.3-3.5
2019-Apr-12 13:00N 47°36' W 052°42'0 0.0 220 / 81013.8 2.1-3.6
2019-Apr-12 12:00N 47°36' W 052°42'0 0.0 210 / 51014.0 1.3-3.1
2019-Apr-12 11:00N 47°36' W 052°42'0 0.0 220 / 51014.1 0.6-2.9
2019-Apr-12 10:00N 47°36' W 052°42'0 0.0 260 / 21013.5 0.5-2.7
2019-Apr-12 09:00N 47°36' W 052°42'0 0.0 200 / 61012.5 0.2-2.9
2019-Apr-12 05:00N 47°36' W 052°42'0 0.0 220 / 71008.3 0.7-1.5
2019-Apr-12 04:00N 47°36' W 052°42'0 0.0 220 / 51008.0 0.9-1.6
2019-Apr-12 03:00N 47°36' W 052°42'0 0.0 270 / 61007.4 0.7-1.4
2019-Apr-12 02:00N 47°36' W 052°42'0 0.0 270 / 51006.9 0.9-1.7
2019-Apr-12 01:00N 47°36' W 052°42'0 0.0 270 / 41006.3 1.0-1.2
2019-Apr-11 23:00N 47°36' W 052°42'0 0.0 240 / 31004.6 1.7-1.6
2019-Apr-11 22:00N 47°36' W 052°42'0 0.0 260 / 51003.2 2.5-2.1
2019-Apr-11 21:00N 47°36' W 052°42'0 0.0 290 / 61002.4 3.1-2.5
2019-Apr-11 20:00N 47°36' W 052°42'0 0.0 290 / 71001.3 3.6-2.3
2019-Apr-11 19:00N 47°36' W 052°42'0 0.0 280 / 61000.6 3.5-2.7
2019-Apr-11 18:00N 47°36' W 052°42'0 0.0 310 / 101000.1 3.5-2.4
2019-Apr-11 17:00N 47°36' W 052°42'0 0.0 300 / 8999.7 3.0-0.3
2019-Apr-11 16:00N 47°36' W 052°42'0 0.0 220 / 8999.2 3.3-1.8
2019-Apr-11 15:00N 47°36' W 052°42'0 0.0 280 / 5999.2 3.2-2.3
2019-Apr-11 14:00N 47°36' W 052°42'0 0.0 220 / 5999.4 2.4-1.6
2019-Apr-11 13:00N 47°36' W 052°42'0 0.0 200 / 8999.1 1.3-0.9
2019-Apr-11 11:00N 47°36' W 052°42'0 0.0 200 / 5998.6 1.1-1.6
2019-Apr-11 10:00N 47°36' W 052°42'0 0.0 180 / 4998.2 1.1-1.5
2019-Apr-11 09:00N 47°36' W 052°42'0 0.0 190 / 5997.6 0.8-1.3
2019-Apr-11 08:00N 47°36' W 052°42'0 0.0 180 / 5997.2 1.1-1.4
2019-Apr-11 07:00N 47°36' W 052°42'0 0.0 180 / 3997.1 1.4-0.9
2019-Apr-11 06:00N 47°36' W 052°42'0 0.0 190 / 4996.9 1.2-1.0
2019-Apr-11 05:00N 47°36' W 052°42'0 0.0 190 / 5996.6 1.2-0.9
2019-Apr-11 04:00N 47°36' W 052°42'0 0.0 180 / 5996.6 1.3-0.7
2019-Apr-11 03:00N 47°36' W 052°42'0 0.0 190 / 4996.7 1.3-0.5
2019-Apr-11 02:00N 47°36' W 052°42'0 0.0 190 / 5996.9 1.2-0.2
2019-Apr-11 01:00N 47°36' W 052°42'0 0.0 180 / 5996.8 1.8-0.0
2019-Apr-11 00:00N 47°36' W 052°42'0 0.0 180 / 4996.5 1.8 0.2
2019-Apr-10 23:00N 47°36' W 052°42'0 0.0 190 / 4996.4 1.8 0.2
2019-Apr-10 22:00N 47°36' W 052°42'0 0.0 200 / 4995.9 1.6-0.0
2019-Apr-10 21:00N 47°36' W 052°42'0 0.0 200 / 6995.8 1.7-0.0
2019-Apr-10 20:00N 47°36' W 052°42'0 0.0 190 / 7996.0 1.7-0.2
2019-Apr-10 19:00N 47°36' W 052°42'0 0.0 190 / 7996.2 2.3-0.6
2019-Apr-10 18:00N 47°36' W 052°42'0 0.0 200 / 11996.1 3.5-2.8
2019-Apr-10 16:00N 47°36' W 052°42'0 0.0 200 / 11996.4 2.8-3.3
2019-Apr-10 15:00N 47°36' W 052°42'0 0.0 200 / 11996.7 2.5-3.7
2019-Apr-10 14:00N 47°36' W 052°42'0 0.0 200 / 11997.2 3.0-3.7
2019-Apr-10 13:00N 47°36' W 052°42'0 0.0 190 / 12997.4 2.0-4.2
2019-Apr-10 12:00N 47°36' W 052°42'0 0.0 190 / 12997.8 1.0-5.0
2019-Apr-10 11:00N 47°36' W 052°42'0 0.0 180 / 7997.4 0.1-5.6
2019-Apr-10 10:00N 47°36' W 052°42'0 0.0 160 / 7997.9 -1.5-6.5
2019-Apr-10 09:00N 47°36' W 052°42'0 0.0 150 / 8998.3 -1.6-6.5
2019-Apr-10 08:00N 47°36' W 052°42'0 0.0 160 / 7998.5 -1.3-6.7
2019-Apr-10 07:00N 47°36' W 052°42'0 0.0 170 / 6998.9 -1.2-7.3
2019-Apr-10 06:00N 47°36' W 052°42'0 0.0 160 / 7998.7 -0.7-7.4
2019-Apr-10 04:00N 47°36' W 052°42'0 0.0 190 / 10999.5 -1.0-9.2
2019-Apr-10 03:00N 47°36' W 052°42'0 0.0 180 / 6999.1 -0.8-8.8
2019-Apr-10 02:00N 47°36' W 052°42'0 0.0 180 / 8999.2 -0.9-8.2
2019-Apr-10 01:00N 47°36' W 052°42'0 0.0 180 / 10998.8 -1.0-8.2
2019-Apr-10 00:00N 47°36' W 052°42'0 0.0 170 / 6999.5 -0.6-8.9
2019-Apr-09 23:00N 47°36' W 052°42'0 0.0 190 / 12999.1 -0.5-10.1
2019-Apr-09 21:00N 47°36' W 052°42'0 0.0 190 / 9999.3 1.7-11.3
2019-Apr-09 20:00N 47°36' W 052°42'0 0.0 200 / 12999.7 1.8-11.4
2019-Apr-09 19:00N 47°36' W 052°42'0 0.0 210 / 131000.2 1.5-11.7
2019-Apr-09 18:00N 47°36' W 052°42'0 0.0 200 / 131001.1 1.0-11.4
2019-Apr-09 17:00N 47°36' W 052°42'0 0.0 200 / 141001.5 0.4-12.6
2019-Apr-09 16:00N 47°36' W 052°42'0 0.0 200 / 161002.1 0.1-15.0
2019-Apr-09 15:00N 47°36' W 052°42'0 0.0 190 / 171003.2 -0.8-13.6
2019-Apr-09 14:00N 47°36' W 052°42'0 0.0 180 / 141004.1 -0.9-12.2
2019-Apr-09 13:00N 47°36' W 052°42'0 0.0 190 / 151004.7 -1.8-12.4
2019-Apr-09 11:00N 47°36' W 052°42'0 0.0 150 / 31006.6 -4.6-10.3
2019-Apr-09 09:00N 47°36' W 052°42'   180 / 101007.5 -5.9-10.1
Track history (hours):
 
Tides and Currents Weather Stations Pressure Air Temp Water Temp Dewpoint Dewpoint Depression Visibility Wind Speed Wind Dir Waves Ship Positions

CCGS Henry Larsen (Canada)

Medium Gulf/River Icebreaker

Last reported at 2019-Apr-19 09:00 UTC. Time now 2019-Apr-19 10:20 UTC.
Position N 47°36' W 052°42'.

Length 100.03 m; beam 19.82 m; draft 7.2 m.

Type: SAR. MMSI: 316013000.

Wind from 180 at 5 knots

Barometer 1027.0 mb
Air temperature -3.9 ° C
Dewpoint -6.2 ° C

Date/timePositionNaut miles runAvg speedWind from/ knotsBaromVisibWave heightAir tempDewpointWater temp
2019-Apr-19 09:00N 47°36' W 052°42'0 0.0 180 / 51027.0 -3.9-6.2
2019-Apr-19 08:00N 47°36' W 052°42'0 0.0 170 / 41026.5 -4.1-6.7
2019-Apr-19 07:00N 47°36' W 052°42'0 0.0 170 / 31026.4 -3.9-6.6
2019-Apr-19 06:00N 47°36' W 052°42'0 0.0 160 / 31026.7 -3.6-6.7
2019-Apr-19 05:00N 47°36' W 052°42'0 0.0 160 / 21026.8 -3.1-6.3
2019-Apr-19 04:00N 47°36' W 052°42'0 0.0 180 / 41027.2 -3.4-6.6
2019-Apr-19 03:00N 47°36' W 052°42'0 0.0 190 / 41027.4 -2.5-6.4
2019-Apr-19 02:00N 47°36' W 052°42'0 0.0 160 / 11027.0 -1.4-6.2
2019-Apr-19 01:00N 47°36' W 052°42'0 0.0 340 / 41026.4 -0.7-6.4
2019-Apr-19 00:00N 47°36' W 052°42'0 0.0 330 / 41026.0 -0.2-6.3
2019-Apr-18 22:00N 47°36' W 052°42'0 0.0 270 / 61024.7 0.2-7.4
2019-Apr-18 21:00N 47°36' W 052°42'0 0.0 290 / 61023.3 0.4-6.4
2019-Apr-18 20:00N 47°36' W 052°42'0 0.0 300 / 91022.4 0.5-5.8
2019-Apr-18 19:00N 47°36' W 052°42'0 0.0 290 / 51021.5 0.9-5.5
2019-Apr-18 18:00N 47°36' W 052°42'0 0.0 290 / 91020.7 0.6-5.5
2019-Apr-18 17:00N 47°36' W 052°42'0 0.0 290 / 91020.2 0.5-5.1
2019-Apr-18 16:00N 47°36' W 052°42'0 0.0 290 / 101019.3 0.4-5.1
2019-Apr-18 15:00N 47°36' W 052°42'0 0.0 300 / 81018.4 0.4-5.1
2019-Apr-18 14:00N 47°36' W 052°42'0 0.0 270 / 71017.8 0.2-4.8
2019-Apr-18 13:00N 47°36' W 052°42'0 0.0 300 / 81016.7 -0.0-4.4
2019-Apr-18 12:00N 47°36' W 052°42'0 0.0 310 / 81015.7 -0.3-4.3
2019-Apr-18 10:00N 47°36' W 052°42'0 0.0 260 / 71013.4 -0.5-4.4
2019-Apr-18 07:00N 47°36' W 052°42'0 0.0 270 / 61009.5 -0.5-4.4
2019-Apr-18 06:00N 47°36' W 052°42'0 0.0 310 / 81008.3 -0.3-4.4
2019-Apr-18 05:00N 47°36' W 052°42'0 0.0 300 / 111007.6 -0.2-4.3
2019-Apr-18 04:00N 47°36' W 052°42'0 0.0 300 / 111006.8 -0.1-4.1
2019-Apr-18 03:00N 47°36' W 052°42'0 0.0 310 / 111005.9 -0.2-3.6
2019-Apr-18 02:00N 47°36' W 052°42'0 0.0 310 / 101004.8 -0.1-3.4
2019-Apr-18 01:00N 47°36' W 052°42'0 0.0 310 / 111003.4 -0.0-3.5
2019-Apr-18 00:00N 47°36' W 052°42'0 0.0 310 / 131001.7 0.2-3.2
2019-Apr-17 23:00N 47°36' W 052°42'0 0.0 320 / 14999.5 0.2-2.8
2019-Apr-17 22:00N 47°36' W 052°42'0 0.0 330 / 17997.5 0.4-2.3
2019-Apr-17 21:00N 47°36' W 052°42'0 0.0 320 / 20995.2 0.7-2.0
2019-Apr-17 20:00N 47°36' W 052°42'0 0.0 330 / 21993.1 0.9-1.5
2019-Apr-17 19:00N 47°36' W 052°42'0 0.0 330 / 20991.0 1.4-1.3
2019-Apr-17 18:00N 47°36' W 052°42'0 0.0 330 / 20989.1 1.9-1.3
2019-Apr-17 17:00N 47°36' W 052°42'0 0.0 320 / 21987.4 1.9-1.2
2019-Apr-17 15:00N 47°36' W 052°42'0 0.0 320 / 17984.7 1.7-1.0
2019-Apr-17 14:00N 47°36' W 052°42'0 0.0 300 / 9983.3 1.5-0.8
2019-Apr-17 13:00N 47°36' W 052°42'0 0.0 300 / 5982.3 1.2-0.7
2019-Apr-17 10:00N 47°36' W 052°42'0 0.0 180 / 11979.6 0.6-1.3
2019-Apr-17 09:00N 47°36' W 052°42'0 0.0 190 / 11979.2 0.7-1.7
2019-Apr-17 08:00N 47°36' W 052°42'0 0.0 180 / 10978.8 0.6-1.4
2019-Apr-17 07:00N 47°36' W 052°42'0 0.0 180 / 10978.9 0.9-1.1
2019-Apr-17 06:00N 47°36' W 052°42'0 0.0 180 / 8978.9 1.0-0.7
2019-Apr-17 05:00N 47°36' W 052°42'0 0.0 170 / 6979.5 1.6-0.7
2019-Apr-17 03:00N 47°36' W 052°42'0 0.0 160 / 7980.3 2.1-0.2
2019-Apr-17 02:00N 47°36' W 052°42'0 0.0 180 / 10980.3 1.8-0.1
2019-Apr-17 01:00N 47°36' W 052°42'0 0.0 180 / 9981.4 2.1-0.1
2019-Apr-17 00:00N 47°36' W 052°42'0 0.0 170 / 9982.1 2.5 0.6
2019-Apr-16 23:00N 47°36' W 052°42'0 0.0 180 / 7982.8 2.8 1.1
2019-Apr-16 22:00N 47°36' W 052°42'0 0.0 180 / 9983.1 3.6 1.8
2019-Apr-16 21:00N 47°36' W 052°42'0 0.0 170 / 10983.5 5.5 3.0
2019-Apr-16 20:00N 47°36' W 052°42'0 0.0 180 / 10983.9 6.0 4.0
2019-Apr-16 19:00N 47°36' W 052°42'0 0.0 170 / 7984.7 7.3 5.2
2019-Apr-16 18:00N 47°36' W 052°42'0 0.0 180 / 9985.6 8.4 6.3
2019-Apr-16 17:00N 47°36' W 052°42'0 0.0 180 / 12986.2 9.4 7.4
2019-Apr-16 16:00N 47°36' W 052°42'0 0.0 360 / 3987.7 4.5 4.1
2019-Apr-16 15:00N 47°36' W 052°42'0 0.0 330 / 2989.0 2.9 2.6
2019-Apr-16 14:00N 47°36' W 052°42'0 0.0 340 / 2990.2 2.1 1.8
2019-Apr-16 13:00N 47°36' W 052°42'0 0.0 991.2 1.6 1.3
2019-Apr-16 12:00N 47°36' W 052°42'0 0.0 330 / 2992.3 1.1 0.7
2019-Apr-16 11:00N 47°36' W 052°42'0 0.0 992.9 0.8 0.4
2019-Apr-16 10:00N 47°36' W 052°42'0 0.0 310 / 2993.6 0.4-0.0
2019-Apr-16 08:00N 47°36' W 052°42'0 0.0 270 / 3997.3 -0.0-0.7
2019-Apr-16 07:00N 47°36' W 052°42'0 0.0 200 / 1999.6 0.2-0.7
2019-Apr-16 06:00N 47°36' W 052°42'0 0.0 050 / 41000.9 -0.1-0.9
2019-Apr-16 05:00N 47°36' W 052°42'0 0.0 030 / 41003.8 -0.4-1.2
2019-Apr-16 04:00N 47°36' W 052°42'0 0.0 080 / 11005.8 -0.4-1.3
2019-Apr-16 03:00N 47°36' W 052°42'0 0.0 020 / 11007.5 -0.4-1.4
2019-Apr-16 02:00N 47°36' W 052°42'0 0.0 040 / 31008.5 -0.3-1.4
2019-Apr-16 01:00N 47°36' W 052°42'0 0.0 190 / 11010.3 -0.2-1.8
2019-Apr-16 00:00N 47°36' W 052°42'0 0.0 130 / 11012.4 -0.0-2.2
2019-Apr-15 23:00N 47°36' W 052°42'0 0.0 180 / 21013.3 0.4-3.3
2019-Apr-15 22:00N 47°36' W 052°42'0 0.0 160 / 21013.7 0.6-3.5
2019-Apr-15 20:00N 47°36' W 052°42'0 0.0 190 / 21014.4 1.5-5.1
2019-Apr-15 19:00N 47°36' W 052°42'0 0.0 180 / 51015.0 2.5-6.5
2019-Apr-15 18:00N 47°36' W 052°42'0 0.0 180 / 51015.4 2.8-7.0
2019-Apr-15 17:00N 47°36' W 052°42'0 0.0 170 / 41015.4 4.5-8.1
2019-Apr-15 16:00N 47°36' W 052°42'0 0.0 150 / 31015.6 5.0-6.0
2019-Apr-15 15:00N 47°36' W 052°42'0 0.0 120 / 21015.2 5.4-5.1
2019-Apr-15 13:00N 47°36' W 052°42'0 0.0 350 / 31016.5 3.0-2.2
2019-Apr-15 10:00N 47°36' W 052°42'0 0.0 160 / 21015.0 0.9-2.4
2019-Apr-15 09:00N 47°36' W 052°42'0 0.0 170 / 21014.7 -0.6-3.3
2019-Apr-15 08:00N 47°36' W 052°42'0 0.0 1013.5 -0.1-2.9
2019-Apr-15 07:00N 47°36' W 052°42'0 0.0 340 / 11012.9 0.3-2.9
2019-Apr-15 06:00N 47°36' W 052°42'0 0.0 240 / 21012.2 0.7-2.6
2019-Apr-15 05:00N 47°36' W 052°42'0 0.0 340 / 41011.4 1.8-2.5
2019-Apr-15 04:00N 47°36' W 052°42'0 0.0 290 / 21011.1 2.2-2.7
2019-Apr-15 03:00N 47°36' W 052°42'0 0.0 210 / 11010.4 2.6-2.1
2019-Apr-15 01:00N 47°36' W 052°42'0 0.0 280 / 51008.7 2.9-2.3
2019-Apr-15 00:00N 47°36' W 052°42'0 0.0 310 / 41007.2 3.4-1.6
2019-Apr-14 23:00N 47°36' W 052°42'0 0.0 320 / 81005.5 3.5-0.8
2019-Apr-14 22:00N 47°36' W 052°42'0 0.0 340 / 71003.5 5.9 0.1
2019-Apr-14 21:00N 47°36' W 052°42'0 0.0 250 / 31002.1 8.5-1.0
2019-Apr-14 20:00N 47°36' W 052°42'0 0.0 220 / 51001.1 8.6-0.5
2019-Apr-14 19:00N 47°36' W 052°42'0 0.0 210 / 91000.0 9.4 0.2
2019-Apr-14 18:00N 47°36' W 052°42'0 0.0 210 / 9999.2 10.3 1.7
2019-Apr-14 17:00N 47°36' W 052°42'0 0.0 210 / 6999.7 10.0 3.3
2019-Apr-14 16:00N 47°36' W 052°42'0 0.0 220 / 7999.9 8.1 3.2
2019-Apr-14 15:00N 47°36' W 052°42'0 0.0 220 / 9999.4 7.1 3.1
2019-Apr-14 13:00N 47°36' W 052°42'0 0.0 210 / 71000.3 6.0 4.2
2019-Apr-14 12:00N 47°36' W 052°42'0 0.0 210 / 51000.4 7.0 4.6
2019-Apr-14 11:00N 47°36' W 052°42'0 0.0 200 / 61001.1 5.5 3.4
2019-Apr-14 10:00N 47°36' W 052°42'0 0.0 200 / 61002.4 4.2 2.8
2019-Apr-14 09:00N 47°36' W 052°42'0 0.0 190 / 31003.0 4.0 2.4
2019-Apr-14 08:00N 47°36' W 052°42'0 0.0 200 / 31003.0 3.6 1.3
2019-Apr-14 07:00N 47°36' W 052°42'0 0.0 240 / 11004.0 3.1 0.8
2019-Apr-14 06:00N 47°36' W 052°42'0 0.0 200 / 61005.4 2.6 0.6
2019-Apr-14 05:00N 47°36' W 052°42'0 0.0 200 / 51007.3 2.4-0.1
2019-Apr-14 04:00N 47°36' W 052°42'0 0.0 200 / 61008.6 2.3-0.6
2019-Apr-14 03:00N 47°36' W 052°42'0 0.0 200 / 71009.9 2.5-1.3
2019-Apr-14 02:00N 47°36' W 052°42'0 0.0 200 / 81011.3 2.7-3.4
2019-Apr-14 01:00N 47°36' W 052°42'0 0.0 200 / 51011.8 3.3-7.0
2019-Apr-14 00:00N 47°36' W 052°42'0 0.0 200 / 61013.0 4.1-6.9
2019-Apr-13 23:00N 47°36' W 052°42'0 0.0 210 / 91014.5 4.5-6.8
2019-Apr-13 22:00N 47°36' W 052°42'0 0.0 210 / 71014.3 5.2-4.9
2019-Apr-13 21:00N 47°36' W 052°42'0 0.0 210 / 81015.0 5.7-7.1
2019-Apr-13 20:00N 47°36' W 052°42'0 0.0 210 / 91015.3 6.8-11.4
2019-Apr-13 19:00N 47°36' W 052°42'0 0.0 210 / 61016.3 7.5-8.0
2019-Apr-13 18:00N 47°36' W 052°42'0 0.0 210 / 71016.9 7.6-8.5
2019-Apr-13 17:00N 47°36' W 052°42'0 0.0 210 / 51017.7 7.5-9.2
2019-Apr-13 16:00N 47°36' W 052°42'0 0.0 210 / 51018.1 6.8-9.4
2019-Apr-13 15:00N 47°36' W 052°42'0 0.0 220 / 51018.7 5.8-9.2
2019-Apr-13 14:00N 47°36' W 052°42'0 0.0 230 / 41019.3 5.2-8.2
2019-Apr-13 13:00N 47°36' W 052°42'0 0.0 200 / 91019.9 2.3-8.2
2019-Apr-13 12:00N 47°36' W 052°42'0 0.0 190 / 101020.1 0.8-7.3
2019-Apr-13 11:00N 47°36' W 052°42'0 0.0 190 / 81019.9 -0.0-6.5
2019-Apr-13 10:00N 47°36' W 052°42'0 0.0 170 / 51019.3 -0.6-6.1
2019-Apr-13 09:00N 47°36' W 052°42'0 0.0 180 / 41018.1 -2.0-6.9
2019-Apr-13 08:00N 47°36' W 052°42'0 0.0 170 / 51018.2 -1.6-6.7
2019-Apr-13 06:00N 47°36' W 052°42'0 0.0 160 / 41017.4 -0.9-6.3
2019-Apr-13 05:00N 47°36' W 052°42'0 0.0 180 / 51017.4 -1.2-7.2
2019-Apr-13 04:00N 47°36' W 052°42'0 0.0 170 / 41017.3 -1.6-6.1
2019-Apr-13 03:00N 47°36' W 052°42'0 0.0 170 / 31017.0 -1.6-5.3
2019-Apr-13 02:00N 47°36' W 052°42'0 0.0 170 / 41017.0 -1.2-5.5
2019-Apr-13 01:00N 47°36' W 052°42'0 0.0 170 / 21017.2 -0.9-5.1
2019-Apr-13 00:00N 47°36' W 052°42'0 0.0 010 / 31016.3 -1.3-5.0
2019-Apr-12 23:00N 47°36' W 052°42'0 0.0 360 / 51015.4 -0.9-4.6
2019-Apr-12 22:00N 47°36' W 052°42'0 0.0 010 / 61014.5 0.4-4.8
2019-Apr-12 21:00N 47°36' W 052°42'0 0.0 010 / 71013.9 2.2-5.0
2019-Apr-12 20:00N 47°36' W 052°42'0 0.0 360 / 91013.4 2.0-4.7
2019-Apr-12 19:00N 47°36' W 052°42'0 0.0 350 / 41012.6 2.4-3.5
2019-Apr-12 18:00N 47°36' W 052°42'0 0.0 210 / 91012.4 5.1-4.3
2019-Apr-12 17:00N 47°36' W 052°42'0 0.0 210 / 101012.5 4.8-3.9
2019-Apr-12 16:00N 47°36' W 052°42'0 0.0 210 / 81012.9 4.0-3.9
2019-Apr-12 15:00N 47°36' W 052°42'0 0.0 210 / 71013.3 3.6-3.7
2019-Apr-12 14:00N 47°36' W 052°42'0 0.0 220 / 71013.7 3.3-3.5
2019-Apr-12 13:00N 47°36' W 052°42'0 0.0 220 / 81013.8 2.1-3.6
2019-Apr-12 12:00N 47°36' W 052°42'0 0.0 210 / 51014.0 1.3-3.1
2019-Apr-12 11:00N 47°36' W 052°42'0 0.0 220 / 51014.1 0.6-2.9
2019-Apr-12 10:00N 47°36' W 052°42'0 0.0 260 / 21013.5 0.5-2.7
2019-Apr-12 09:00N 47°36' W 052°42'0 0.0 200 / 61012.5 0.2-2.9
2019-Apr-12 05:00N 47°36' W 052°42'0 0.0 220 / 71008.3 0.7-1.5
2019-Apr-12 04:00N 47°36' W 052°42'0 0.0 220 / 51008.0 0.9-1.6
2019-Apr-12 03:00N 47°36' W 052°42'0 0.0 270 / 61007.4 0.7-1.4
2019-Apr-12 02:00N 47°36' W 052°42'0 0.0 270 / 51006.9 0.9-1.7
2019-Apr-12 01:00N 47°36' W 052°42'0 0.0 270 / 41006.3 1.0-1.2
2019-Apr-11 23:00N 47°36' W 052°42'0 0.0 240 / 31004.6 1.7-1.6
2019-Apr-11 22:00N 47°36' W 052°42'0 0.0 260 / 51003.2 2.5-2.1
2019-Apr-11 21:00N 47°36' W 052°42'0 0.0 290 / 61002.4 3.1-2.5
2019-Apr-11 20:00N 47°36' W 052°42'0 0.0 290 / 71001.3 3.6-2.3
2019-Apr-11 19:00N 47°36' W 052°42'0 0.0 280 / 61000.6 3.5-2.7
2019-Apr-11 18:00N 47°36' W 052°42'0 0.0 310 / 101000.1 3.5-2.4
2019-Apr-11 17:00N 47°36' W 052°42'0 0.0 300 / 8999.7 3.0-0.3
2019-Apr-11 16:00N 47°36' W 052°42'0 0.0 220 / 8999.2 3.3-1.8
2019-Apr-11 15:00N 47°36' W 052°42'0 0.0 280 / 5999.2 3.2-2.3
2019-Apr-11 14:00N 47°36' W 052°42'0 0.0 220 / 5999.4 2.4-1.6
2019-Apr-11 13:00N 47°36' W 052°42'0 0.0 200 / 8999.1 1.3-0.9
2019-Apr-11 11:00N 47°36' W 052°42'0 0.0 200 / 5998.6 1.1-1.6
2019-Apr-11 10:00N 47°36' W 052°42'0 0.0 180 / 4998.2 1.1-1.5
2019-Apr-11 09:00N 47°36' W 052°42'0 0.0 190 / 5997.6 0.8-1.3
2019-Apr-11 08:00N 47°36' W 052°42'0 0.0 180 / 5997.2 1.1-1.4
2019-Apr-11 07:00N 47°36' W 052°42'0 0.0 180 / 3997.1 1.4-0.9
2019-Apr-11 06:00N 47°36' W 052°42'0 0.0 190 / 4996.9 1.2-1.0
2019-Apr-11 05:00N 47°36' W 052°42'0 0.0 190 / 5996.6 1.2-0.9
2019-Apr-11 04:00N 47°36' W 052°42'0 0.0 180 / 5996.6 1.3-0.7
2019-Apr-11 03:00N 47°36' W 052°42'0 0.0 190 / 4996.7 1.3-0.5
2019-Apr-11 02:00N 47°36' W 052°42'0 0.0 190 / 5996.9 1.2-0.2
2019-Apr-11 01:00N 47°36' W 052°42'0 0.0 180 / 5996.8 1.8-0.0
2019-Apr-11 00:00N 47°36' W 052°42'0 0.0 180 / 4996.5 1.8 0.2
2019-Apr-10 23:00N 47°36' W 052°42'0 0.0 190 / 4996.4 1.8 0.2
2019-Apr-10 22:00N 47°36' W 052°42'0 0.0 200 / 4995.9 1.6-0.0
2019-Apr-10 21:00N 47°36' W 052°42'0 0.0 200 / 6995.8 1.7-0.0
2019-Apr-10 20:00N 47°36' W 052°42'0 0.0 190 / 7996.0 1.7-0.2
2019-Apr-10 19:00N 47°36' W 052°42'0 0.0 190 / 7996.2 2.3-0.6
2019-Apr-10 18:00N 47°36' W 052°42'0 0.0 200 / 11996.1 3.5-2.8
2019-Apr-10 16:00N 47°36' W 052°42'0 0.0 200 / 11996.4 2.8-3.3
2019-Apr-10 15:00N 47°36' W 052°42'0 0.0 200 / 11996.7 2.5-3.7
2019-Apr-10 14:00N 47°36' W 052°42'0 0.0 200 / 11997.2 3.0-3.7
2019-Apr-10 13:00N 47°36' W 052°42'0 0.0 190 / 12997.4 2.0-4.2
2019-Apr-10 12:00N 47°36' W 052°42'0 0.0 190 / 12997.8 1.0-5.0
2019-Apr-10 11:00N 47°36' W 052°42'0 0.0 180 / 7997.4 0.1-5.6
2019-Apr-10 10:00N 47°36' W 052°42'0 0.0 160 / 7997.9 -1.5-6.5
2019-Apr-10 09:00N 47°36' W 052°42'0 0.0 150 / 8998.3 -1.6-6.5
2019-Apr-10 08:00N 47°36' W 052°42'0 0.0 160 / 7998.5 -1.3-6.7
2019-Apr-10 07:00N 47°36' W 052°42'0 0.0 170 / 6998.9 -1.2-7.3
2019-Apr-10 06:00N 47°36' W 052°42'0 0.0 160 / 7998.7 -0.7-7.4
2019-Apr-10 04:00N 47°36' W 052°42'0 0.0 190 / 10999.5 -1.0-9.2
2019-Apr-10 03:00N 47°36' W 052°42'0 0.0 180 / 6999.1 -0.8-8.8
2019-Apr-10 02:00N 47°36' W 052°42'0 0.0 180 / 8999.2 -0.9-8.2
2019-Apr-10 01:00N 47°36' W 052°42'0 0.0 180 / 10998.8 -1.0-8.2
2019-Apr-10 00:00N 47°36' W 052°42'0 0.0 170 / 6999.5 -0.6-8.9
2019-Apr-09 23:00N 47°36' W 052°42'0 0.0 190 / 12999.1 -0.5-10.1
2019-Apr-09 21:00N 47°36' W 052°42'0 0.0 190 / 9999.3 1.7-11.3
2019-Apr-09 20:00N 47°36' W 052°42'0 0.0 200 / 12999.7 1.8-11.4
2019-Apr-09 19:00N 47°36' W 052°42'0 0.0 210 / 131000.2 1.5-11.7
2019-Apr-09 18:00N 47°36' W 052°42'0 0.0 200 / 131001.1 1.0-11.4
2019-Apr-09 17:00N 47°36' W 052°42'0 0.0 200 / 141001.5 0.4-12.6
2019-Apr-09 16:00N 47°36' W 052°42'0 0.0 200 / 161002.1 0.1-15.0
2019-Apr-09 15:00N 47°36' W 052°42'0 0.0 190 / 171003.2 -0.8-13.6
2019-Apr-09 14:00N 47°36' W 052°42'0 0.0 180 / 141004.1 -0.9-12.2
2019-Apr-09 13:00N 47°36' W 052°42'0 0.0 190 / 151004.7 -1.8-12.4
2019-Apr-09 11:00N 47°36' W 052°42'0 0.0 150 / 31006.6 -4.6-10.3
2019-Apr-09 09:00N 47°36' W 052°42'   180 / 101007.5 -5.9-10.1

Dump ship's entire track history